sensor_id;sensor_type;location;lat;lon;timestamp;pressure;altitude;pressure_sealevel;temperature;humidity
52535;BME280;38443;53.164;5.802;2023-05-23T00:02:03;101984.78;;;11.39;100.00
52535;BME280;38443;53.164;5.802;2023-05-23T00:04:32;101980.31;;;11.40;100.00
52535;BME280;38443;53.164;5.802;2023-05-23T00:06:57;101988.34;;;11.40;100.00
52535;BME280;38443;53.164;5.802;2023-05-23T00:09:23;101999.94;;;11.42;100.00
52535;BME280;38443;53.164;5.802;2023-05-23T00:11:48;101997.25;;;11.42;100.00
52535;BME280;38443;53.164;5.802;2023-05-23T00:14:14;101998.19;;;11.39;100.00
52535;BME280;38443;53.164;5.802;2023-05-23T00:16:41;101993.75;;;11.36;100.00
52535;BME280;38443;53.164;5.802;2023-05-23T00:19:08;102007.13;;;11.40;100.00
52535;BME280;38443;53.164;5.802;2023-05-23T00:21:34;101996.38;;;11.41;100.00
52535;BME280;38443;53.164;5.802;2023-05-23T00:23:59;101993.72;;;11.40;100.00
52535;BME280;38443;53.164;5.802;2023-05-23T00:26:26;101997.34;;;11.37;100.00
52535;BME280;38443;53.164;5.802;2023-05-23T00:28:54;102019.66;;;11.39;100.00
52535;BME280;38443;53.164;5.802;2023-05-23T00:31:20;101995.56;;;11.36;100.00
52535;BME280;38443;53.164;5.802;2023-05-23T00:33:46;102003.56;;;11.37;100.00
52535;BME280;38443;53.164;5.802;2023-05-23T00:36:11;102000.00;;;11.37;100.00
52535;BME280;38443;53.164;5.802;2023-05-23T00:38:37;102006.34;;;11.31;100.00
52535;BME280;38443;53.164;5.802;2023-05-23T00:41:03;102016.22;;;11.28;100.00
52535;BME280;38443;53.164;5.802;2023-05-23T00:43:29;102010.88;;;11.26;100.00
52535;BME280;38443;53.164;5.802;2023-05-23T00:45:56;102016.22;;;11.28;100.00
52535;BME280;38443;53.164;5.802;2023-05-23T00:48:21;102020.69;;;11.29;100.00
52535;BME280;38443;53.164;5.802;2023-05-23T00:50:47;102021.56;;;11.31;100.00
52535;BME280;38443;53.164;5.802;2023-05-23T00:53:12;102020.63;;;11.30;100.00
52535;BME280;38443;53.164;5.802;2023-05-23T00:55:38;102026.00;;;11.30;100.00
52535;BME280;38443;53.164;5.802;2023-05-23T00:58:04;102028.72;;;11.29;100.00
52535;BME280;38443;53.164;5.802;2023-05-23T01:00:30;102025.13;;;11.28;100.00
52535;BME280;38443;53.164;5.802;2023-05-23T01:02:58;102019.75;;;11.31;100.00
52535;BME280;38443;53.164;5.802;2023-05-23T01:05:23;102025.19;;;11.25;100.00
52535;BME280;38443;53.164;5.802;2023-05-23T01:07:49;102026.94;;;11.26;100.00
52535;BME280;38443;53.164;5.802;2023-05-23T01:10:22;102018.88;;;11.28;100.00
52535;BME280;38443;53.164;5.802;2023-05-23T01:13:03;102025.13;;;11.28;100.00
52535;BME280;38443;53.164;5.802;2023-05-23T01:15:41;102020.72;;;11.26;100.00
52535;BME280;38443;53.164;5.802;2023-05-23T01:18:20;102024.25;;;11.26;100.00
52535;BME280;38443;53.164;5.802;2023-05-23T01:20:54;102014.53;;;11.21;100.00
52535;BME280;38443;53.164;5.802;2023-05-23T01:28:37;102032.38;;;11.22;100.00
52535;BME280;38443;53.164;5.802;2023-05-23T01:31:07;102035.91;;;11.25;100.00
52535;BME280;38443;53.164;5.802;2023-05-23T01:33:35;102038.59;;;11.24;100.00
52535;BME280;38443;53.164;5.802;2023-05-23T01:36:02;102043.94;;;11.25;100.00
52535;BME280;38443;53.164;5.802;2023-05-23T01:38:28;102040.41;;;11.23;100.00
52535;BME280;38443;53.164;5.802;2023-05-23T01:40:53;102034.16;;;11.23;100.00
52535;BME280;38443;53.164;5.802;2023-05-23T01:43:19;102026.13;;;11.21;100.00
52535;BME280;38443;53.164;5.802;2023-05-23T01:45:45;102035.03;;;11.23;100.00
52535;BME280;38443;53.164;5.802;2023-05-23T01:48:11;102051.13;;;11.25;100.00
52535;BME280;38443;53.164;5.802;2023-05-23T01:50:38;102054.66;;;11.25;100.00
52535;BME280;38443;53.164;5.802;2023-05-23T01:53:06;102052.94;;;11.23;100.00
52535;BME280;38443;53.164;5.802;2023-05-23T01:55:33;102061.78;;;11.28;100.00
52535;BME280;38443;53.164;5.802;2023-05-23T01:57:59;102061.78;;;11.26;100.00
52535;BME280;38443;53.164;5.802;2023-05-23T02:00:24;102055.63;;;11.20;100.00
52535;BME280;38443;53.164;5.802;2023-05-23T02:02:50;102062.78;;;11.19;100.00
52535;BME280;38443;53.164;5.802;2023-05-23T02:05:15;102055.72;;;11.13;100.00
52535;BME280;38443;53.164;5.802;2023-05-23T02:07:41;102069.13;;;11.12;100.00
52535;BME280;38443;53.164;5.802;2023-05-23T02:10:07;102072.72;;;11.11;100.00
52535;BME280;38443;53.164;5.802;2023-05-23T02:12:33;102074.53;;;11.09;100.00
52535;BME280;38443;53.164;5.802;2023-05-23T02:14:58;102071.88;;;11.06;100.00
52535;BME280;38443;53.164;5.802;2023-05-23T02:17:23;102079.97;;;11.00;100.00
52535;BME280;38443;53.164;5.802;2023-05-23T02:19:49;102083.59;;;10.95;100.00
52535;BME280;38443;53.164;5.802;2023-05-23T02:22:15;102092.56;;;10.91;100.00
52535;BME280;38443;53.164;5.802;2023-05-23T02:24:40;102079.25;;;10.87;100.00
52535;BME280;38443;53.164;5.802;2023-05-23T02:27:06;102091.75;;;10.85;100.00
52535;BME280;38443;53.164;5.802;2023-05-23T02:29:31;102092.66;;;10.82;100.00
52535;BME280;38443;53.164;5.802;2023-05-23T02:31:57;102087.34;;;10.79;100.00
52535;BME280;38443;53.164;5.802;2023-05-23T02:34:22;102084.66;;;10.79;100.00
52535;BME280;38443;53.164;5.802;2023-05-23T02:36:48;102086.47;;;10.78;100.00
52535;BME280;38443;53.164;5.802;2023-05-23T02:39:13;102091.84;;;10.77;100.00
52535;BME280;38443;53.164;5.802;2023-05-23T02:41:38;102097.19;;;10.77;100.00
52535;BME280;38443;53.164;5.802;2023-05-23T02:44:04;102102.50;;;10.80;100.00
52535;BME280;38443;53.164;5.802;2023-05-23T02:46:29;102094.47;;;10.80;100.00
52535;BME280;38443;53.164;5.802;2023-05-23T02:48:55;102096.25;;;10.80;100.00
52535;BME280;38443;53.164;5.802;2023-05-23T02:51:20;102097.13;;;10.83;100.00
52535;BME280;38443;53.164;5.802;2023-05-23T02:53:45;102110.53;;;10.83;100.00
52535;BME280;38443;53.164;5.802;2023-05-23T02:56:11;102108.72;;;10.84;100.00
52535;BME280;38443;53.164;5.802;2023-05-23T02:58:37;102106.97;;;10.81;100.00
52535;BME280;38443;53.164;5.802;2023-05-23T03:01:04;102100.75;;;10.79;100.00
52535;BME280;38443;53.164;5.802;2023-05-23T03:03:30;102099.81;;;10.80;100.00
52535;BME280;38443;53.164;5.802;2023-05-23T03:05:58;102104.34;;;10.76;100.00
52535;BME280;38443;53.164;5.802;2023-05-23T03:08:23;102102.53;;;10.77;100.00
52535;BME280;38443;53.164;5.802;2023-05-23T03:10:49;102101.69;;;10.75;100.00
52535;BME280;38443;53.164;5.802;2023-05-23T03:13:14;102111.50;;;10.73;100.00
52535;BME280;38443;53.164;5.802;2023-05-23T03:15:40;102107.03;;;10.72;100.00
52535;BME280;38443;53.164;5.802;2023-05-23T03:18:06;102107.03;;;10.73;100.00
52535;BME280;38443;53.164;5.802;2023-05-23T03:20:31;102112.41;;;10.72;100.00
52535;BME280;38443;53.164;5.802;2023-05-23T03:22:56;102109.78;;;10.67;100.00
52535;BME280;38443;53.164;5.802;2023-05-23T03:25:21;102114.25;;;10.65;100.00
52535;BME280;38443;53.164;5.802;2023-05-23T03:27:47;102117.81;;;10.66;100.00
52535;BME280;38443;53.164;5.802;2023-05-23T03:30:12;102118.72;;;10.65;100.00
52535;BME280;38443;53.164;5.802;2023-05-23T03:32:37;102121.41;;;10.65;100.00
52535;BME280;38443;53.164;5.802;2023-05-23T03:35:03;102117.88;;;10.63;100.00
52535;BME280;38443;53.164;5.802;2023-05-23T03:37:28;102125.03;;;10.57;100.00
52535;BME280;38443;53.164;5.802;2023-05-23T03:39:54;102123.28;;;10.56;100.00
52535;BME280;38443;53.164;5.802;2023-05-23T03:42:19;102132.22;;;10.52;100.00
52535;BME280;38443;53.164;5.802;2023-05-23T03:44:44;102141.16;;;10.50;100.00
52535;BME280;38443;53.164;5.802;2023-05-23T03:47:10;102141.19;;;10.45;100.00
52535;BME280;38443;53.164;5.802;2023-05-23T03:49:35;102150.13;;;10.44;100.00
52535;BME280;38443;53.164;5.802;2023-05-23T03:52:00;102145.69;;;10.43;100.00
52535;BME280;38443;53.164;5.802;2023-05-23T03:54:26;102155.50;;;10.41;100.00
52535;BME280;38443;53.164;5.802;2023-05-23T03:56:51;102146.59;;;10.36;100.00
52535;BME280;38443;53.164;5.802;2023-05-23T03:59:17;102144.84;;;10.33;100.00
52535;BME280;38443;53.164;5.802;2023-05-23T04:01:42;102136.84;;;10.27;100.00
52535;BME280;38443;53.164;5.802;2023-05-23T04:04:08;102141.28;;;10.28;100.00
52535;BME280;38443;53.164;5.802;2023-05-23T04:06:33;102154.69;;;10.24;100.00
52535;BME280;38443;53.164;5.802;2023-05-23T04:08:58;102148.47;;;10.25;100.00
52535;BME280;38443;53.164;5.802;2023-05-23T04:11:24;102153.81;;;10.20;100.00
52535;BME280;38443;53.164;5.802;2023-05-23T04:13:49;102151.19;;;10.18;100.00
52535;BME280;38443;53.164;5.802;2023-05-23T04:16:16;102175.25;;;10.18;100.00
52535;BME280;38443;53.164;5.802;2023-05-23T04:18:41;102171.66;;;10.19;100.00
52535;BME280;38443;53.164;5.802;2023-05-23T04:21:07;102176.19;;;10.13;100.00
52535;BME280;38443;53.164;5.802;2023-05-23T04:23:32;102163.72;;;10.04;100.00
52535;BME280;38443;53.164;5.802;2023-05-23T04:25:58;102178.94;;;10.01;100.00
52535;BME280;38443;53.164;5.802;2023-05-23T04:28:25;102184.31;;;9.94;100.00
52535;BME280;38443;53.164;5.802;2023-05-23T04:30:51;102195.94;;;9.89;100.00
52535;BME280;38443;53.164;5.802;2023-05-23T04:33:17;102191.47;;;9.89;100.00
52535;BME280;38443;53.164;5.802;2023-05-23T04:35:42;102187.91;;;9.87;100.00
52535;BME280;38443;53.164;5.802;2023-05-23T04:38:08;102184.31;;;9.91;100.00
52535;BME280;38443;53.164;5.802;2023-05-23T04:40:34;102198.59;;;9.89;100.00
52535;BME280;38443;53.164;5.802;2023-05-23T04:42:59;102189.69;;;9.82;100.00
52535;BME280;38443;53.164;5.802;2023-05-23T04:45:25;102187.94;;;9.81;100.00
52535;BME280;38443;53.164;5.802;2023-05-23T04:47:50;102212.03;;;9.76;100.00
52535;BME280;38443;53.164;5.802;2023-05-23T04:50:19;102211.13;;;9.77;100.00
52535;BME280;38443;53.164;5.802;2023-05-23T04:52:46;102216.47;;;9.77;100.00
52535;BME280;38443;53.164;5.802;2023-05-23T04:55:11;102212.91;;;9.75;100.00
52535;BME280;38443;53.164;5.802;2023-05-23T04:57:36;102200.44;;;9.81;100.00
52535;BME280;38443;53.164;5.802;2023-05-23T05:00:03;102219.13;;;9.84;100.00
52535;BME280;38443;53.164;5.802;2023-05-23T05:02:34;102225.34;;;9.84;100.00
52535;BME280;38443;53.164;5.802;2023-05-23T05:05:01;102230.72;;;9.81;100.00
52535;BME280;38443;53.164;5.802;2023-05-23T05:07:26;102220.94;;;9.77;100.00
52535;BME280;38443;53.164;5.802;2023-05-23T05:09:53;102227.16;;;9.76;100.00
52535;BME280;38443;53.164;5.802;2023-05-23T05:12:18;102220.06;;;9.75;100.00
52535;BME280;38443;53.164;5.802;2023-05-23T05:14:44;102235.22;;;9.73;100.00
52535;BME280;38443;53.164;5.802;2023-05-23T05:17:09;102237.88;;;9.71;100.00
52535;BME280;38443;53.164;5.802;2023-05-23T05:19:34;102241.44;;;9.76;100.00
52535;BME280;38443;53.164;5.802;2023-05-23T05:21:59;102236.06;;;9.78;100.00
52535;BME280;38443;53.164;5.802;2023-05-23T05:24:25;102247.66;;;9.77;100.00
52535;BME280;38443;53.164;5.802;2023-05-23T05:26:51;102255.69;;;9.77;100.00
52535;BME280;38443;53.164;5.802;2023-05-23T05:29:17;102270.88;;;9.70;100.00
52535;BME280;38443;53.164;5.802;2023-05-23T05:31:42;102255.75;;;9.66;100.00
52535;BME280;38443;53.164;5.802;2023-05-23T05:34:09;102262.88;;;9.61;100.00
52535;BME280;38443;53.164;5.802;2023-05-23T05:36:35;102271.78;;;9.57;100.00
52535;BME280;38443;53.164;5.802;2023-05-23T05:39:00;102279.78;;;9.63;100.00
52535;BME280;38443;53.164;5.802;2023-05-23T05:41:26;102278.91;;;9.63;100.00
52535;BME280;38443;53.164;5.802;2023-05-23T05:43:51;102265.53;;;9.66;100.00
52535;BME280;38443;53.164;5.802;2023-05-23T05:46:17;102267.31;;;9.67;100.00
52535;BME280;38443;53.164;5.802;2023-05-23T05:48:42;102269.97;;;9.74;100.00
52535;BME280;38443;53.164;5.802;2023-05-23T05:51:07;102263.69;;;9.80;100.00
52535;BME280;38443;53.164;5.802;2023-05-23T05:53:33;102269.94;;;9.81;100.00
52535;BME280;38443;53.164;5.802;2023-05-23T05:55:58;102274.41;;;9.78;100.00
52535;BME280;38443;53.164;5.802;2023-05-23T05:58:23;102289.47;;;9.99;100.00
52535;BME280;38443;53.164;5.802;2023-05-23T06:00:48;102276.06;;;10.16;100.00
52535;BME280;38443;53.164;5.802;2023-05-23T06:03:14;102287.56;;;10.26;100.00
52535;BME280;38443;53.164;5.802;2023-05-23T06:05:40;102284.91;;;10.37;100.00
52535;BME280;38443;53.164;5.802;2023-05-23T06:08:05;102297.34;;;10.44;100.00
52535;BME280;38443;53.164;5.802;2023-05-23T06:10:31;102288.44;;;10.44;100.00
52535;BME280;38443;53.164;5.802;2023-05-23T06:12:57;102277.78;;;10.31;100.00
52535;BME280;38443;53.164;5.802;2023-05-23T06:15:22;102297.41;;;10.27;100.00
52535;BME280;38443;53.164;5.802;2023-05-23T06:17:48;102301.88;;;10.34;100.00
52535;BME280;38443;53.164;5.802;2023-05-23T06:20:13;102296.53;;;10.27;100.00
52535;BME280;38443;53.164;5.802;2023-05-23T06:22:38;102304.56;;;10.34;100.00
52535;BME280;38443;53.164;5.802;2023-05-23T06:25:04;102300.97;;;10.38;100.00
52535;BME280;38443;53.164;5.802;2023-05-23T06:27:30;102304.53;;;10.37;100.00
52535;BME280;38443;53.164;5.802;2023-05-23T06:29:55;102305.41;;;10.40;100.00
52535;BME280;38443;53.164;5.802;2023-05-23T06:32:20;102324.16;;;10.36;100.00
52535;BME280;38443;53.164;5.802;2023-05-23T06:34:46;102304.53;;;10.37;100.00
52535;BME280;38443;53.164;5.802;2023-05-23T06:37:11;102308.94;;;10.46;100.00
52535;BME280;38443;53.164;5.802;2023-05-23T06:39:36;102312.44;;;10.57;100.00
52535;BME280;38443;53.164;5.802;2023-05-23T06:42:02;102307.13;;;10.50;100.00
52535;BME280;38443;53.164;5.802;2023-05-23T06:44:28;102318.75;;;10.49;100.00
52535;BME280;38443;53.164;5.802;2023-05-23T06:46:53;102313.38;;;10.53;100.00
52535;BME280;38443;53.164;5.802;2023-05-23T06:49:22;102325.88;;;10.53;100.00
52535;BME280;38443;53.164;5.802;2023-05-23T06:51:48;102316.03;;;10.55;100.00
52535;BME280;38443;53.164;5.802;2023-05-23T06:54:13;102319.63;;;10.51;100.00
52535;BME280;38443;53.164;5.802;2023-05-23T06:56:38;102334.75;;;10.60;100.00
52535;BME280;38443;53.164;5.802;2023-05-23T06:59:04;102336.47;;;10.68;100.00
52535;BME280;38443;53.164;5.802;2023-05-23T07:01:29;102332.03;;;10.67;100.00
52535;BME280;38443;53.164;5.802;2023-05-23T07:03:55;102337.47;;;10.56;100.00
52535;BME280;38443;53.164;5.802;2023-05-23T07:06:20;102335.66;;;10.55;100.00
52535;BME280;38443;53.164;5.802;2023-05-23T07:08:46;102344.56;;;10.57;100.00
52535;BME280;38443;53.164;5.802;2023-05-23T07:11:11;102340.09;;;10.63;100.00
52535;BME280;38443;53.164;5.802;2023-05-23T07:13:36;102335.63;;;10.60;100.00
52535;BME280;38443;53.164;5.802;2023-05-23T07:16:02;102343.59;;;10.78;100.00
52535;BME280;38443;53.164;5.802;2023-05-23T07:18:27;102347.09;;;10.84;100.00
52535;BME280;38443;53.164;5.802;2023-05-23T07:20:52;102351.59;;;10.83;100.00
52535;BME280;38443;53.164;5.802;2023-05-23T07:23:18;102348.88;;;10.86;100.00
52535;BME280;38443;53.164;5.802;2023-05-23T07:25:43;102353.25;;;10.98;100.00
52535;BME280;38443;53.164;5.802;2023-05-23T07:28:10;102345.84;;;11.38;100.00
52535;BME280;38443;53.164;5.802;2023-05-23T07:30:35;102340.47;;;11.38;100.00
52535;BME280;38443;53.164;5.802;2023-05-23T07:33:00;102339.44;;;11.52;100.00
52535;BME280;38443;53.164;5.802;2023-05-23T07:35:26;102331.09;;;11.83;100.00
52535;BME280;38443;53.164;5.802;2023-05-23T07:37:52;102346.66;;;12.33;100.00
52535;BME280;38443;53.164;5.802;2023-05-23T07:40:18;102337.31;;;12.64;100.00
52535;BME280;38443;53.164;5.802;2023-05-23T07:42:43;102344.31;;;12.74;100.00
52535;BME280;38443;53.164;5.802;2023-05-23T07:45:09;102350.41;;;12.18;100.00
52535;BME280;38443;53.164;5.802;2023-05-23T07:47:35;102350.72;;;11.86;100.00
52535;BME280;38443;53.164;5.802;2023-05-23T07:50:00;102347.91;;;12.02;100.00
52535;BME280;38443;53.164;5.802;2023-05-23T07:52:28;102352.97;;;12.29;100.00
52535;BME280;38443;53.164;5.802;2023-05-23T07:54:54;102354.97;;;12.82;100.00
52535;BME280;38443;53.164;5.802;2023-05-23T07:57:20;102347.34;;;13.11;100.00
52535;BME280;38443;53.164;5.802;2023-05-23T07:59:45;102350.81;;;13.20;100.00
52535;BME280;38443;53.164;5.802;2023-05-23T08:02:11;102353.50;;;13.20;100.00
52535;BME280;38443;53.164;5.802;2023-05-23T08:04:36;102360.59;;;12.62;100.00
52535;BME280;38443;53.164;5.802;2023-05-23T08:07:01;102369.19;;;12.18;100.00
52535;BME280;38443;53.164;5.802;2023-05-23T08:09:29;102355.91;;;12.06;100.00
52535;BME280;38443;53.164;5.802;2023-05-23T08:11:54;102362.59;;;12.49;100.00
52535;BME280;38443;53.164;5.802;2023-05-23T08:14:20;102364.06;;;12.73;100.00
52535;BME280;38443;53.164;5.802;2023-05-23T08:16:46;102365.44;;;12.98;100.00
52535;BME280;38443;53.164;5.802;2023-05-23T08:19:12;102356.84;;;13.35;100.00
52535;BME280;38443;53.164;5.802;2023-05-23T08:21:37;102363.72;;;13.53;100.00
52535;BME280;38443;53.164;5.802;2023-05-23T08:24:03;102358.91;;;13.72;100.00
52535;BME280;38443;53.164;5.802;2023-05-23T08:26:28;102359.34;;;13.48;100.00
52535;BME280;38443;53.164;5.802;2023-05-23T08:29:01;102358.88;;;13.18;100.00
52535;BME280;38443;53.164;5.802;2023-05-23T08:31:30;102370.19;;;13.43;100.00
52535;BME280;38443;53.164;5.802;2023-05-23T08:33:57;102361.06;;;13.50;100.00
52535;BME280;38443;53.164;5.802;2023-05-23T08:36:23;102378.69;;;13.11;100.00
52535;BME280;38443;53.164;5.802;2023-05-23T08:38:49;102370.47;;;13.23;100.00
52535;BME280;38443;53.164;5.802;2023-05-23T08:41:18;102371.84;;;12.91;100.00
52535;BME280;38443;53.164;5.802;2023-05-23T08:43:44;102376.38;;;12.86;100.00
52535;BME280;38443;53.164;5.802;2023-05-23T08:46:11;102365.44;;;13.00;100.00
52535;BME280;38443;53.164;5.802;2023-05-23T08:48:37;102374.53;;;12.91;100.00
52535;BME280;38443;53.164;5.802;2023-05-23T08:51:03;102377.69;;;12.54;100.00
52535;BME280;38443;53.164;5.802;2023-05-23T08:53:30;102380.78;;;12.22;100.00
52535;BME280;38443;53.164;5.802;2023-05-23T08:55:57;102379.16;;;12.07;100.00
52535;BME280;38443;53.164;5.802;2023-05-23T08:58:29;102389.03;;;12.07;100.00
52535;BME280;38443;53.164;5.802;2023-05-23T09:00:56;102389.28;;;12.60;100.00
52535;BME280;38443;53.164;5.802;2023-05-23T09:03:21;102391.38;;;13.03;100.00
52535;BME280;38443;53.164;5.802;2023-05-23T09:05:48;102392.16;;;13.11;100.00
52535;BME280;38443;53.164;5.802;2023-05-23T09:08:14;102403.84;;;13.07;100.00
52535;BME280;38443;53.164;5.802;2023-05-23T09:10:40;102388.97;;;12.83;100.00
52535;BME280;38443;53.164;5.802;2023-05-23T09:13:06;102414.09;;;12.80;100.00
52535;BME280;38443;53.164;5.802;2023-05-23T09:15:31;102411.59;;;12.65;100.00
52535;BME280;38443;53.164;5.802;2023-05-23T09:18:00;102407.25;;;12.54;100.00
52535;BME280;38443;53.164;5.802;2023-05-23T09:20:27;102419.97;;;12.40;100.00
52535;BME280;38443;53.164;5.802;2023-05-23T09:22:53;102419.88;;;12.46;100.00
52535;BME280;38443;53.164;5.802;2023-05-23T09:25:19;102419.66;;;12.65;100.00
52535;BME280;38443;53.164;5.802;2023-05-23T09:27:45;102432.03;;;12.80;100.00
52535;BME280;38443;53.164;5.802;2023-05-23T09:30:11;102421.25;;;12.81;100.00
52535;BME280;38443;53.164;5.802;2023-05-23T09:32:37;102431.19;;;12.74;100.00
52535;BME280;38443;53.164;5.802;2023-05-23T09:35:04;102440.41;;;12.52;100.00
52535;BME280;38443;53.164;5.802;2023-05-23T09:37:37;102440.41;;;12.53;100.00
52535;BME280;38443;53.164;5.802;2023-05-23T09:40:11;102424.28;;;12.55;100.00
52535;BME280;38443;53.164;5.802;2023-05-23T09:42:41;102425.00;;;12.69;100.00
52535;BME280;38443;53.164;5.802;2023-05-23T09:45:08;102421.63;;;12.50;100.00
52535;BME280;38443;53.164;5.802;2023-05-23T09:47:33;102437.75;;;12.50;100.00
52535;BME280;38443;53.164;5.802;2023-05-23T09:49:59;102420.94;;;12.33;100.00
52535;BME280;38443;53.164;5.802;2023-05-23T09:52:24;102416.38;;;12.40;100.00
52535;BME280;38443;53.164;5.802;2023-05-23T09:54:50;102426.03;;;12.56;100.00
52535;BME280;38443;53.164;5.802;2023-05-23T09:57:15;102420.56;;;12.65;100.00
52535;BME280;38443;53.164;5.802;2023-05-23T09:59:48;102427.53;;;12.80;100.00
52535;BME280;38443;53.164;5.802;2023-05-23T10:02:29;102431.13;;;12.79;100.00
52535;BME280;38443;53.164;5.802;2023-05-23T10:05:05;102435.81;;;12.63;100.00
52535;BME280;38443;53.164;5.802;2023-05-23T10:07:33;102435.84;;;12.58;100.00
52535;BME280;38443;53.164;5.802;2023-05-23T10:10:02;102430.59;;;12.49;100.00
52535;BME280;38443;53.164;5.802;2023-05-23T10:15:03;102430.59;;;12.49;100.00
52535;BME280;38443;53.164;5.802;2023-05-23T10:17:38;102431.47;;;12.51;100.00
52535;BME280;38443;53.164;5.802;2023-05-23T10:20:10;102435.78;;;12.65;100.00
52535;BME280;38443;53.164;5.802;2023-05-23T10:22:37;102430.22;;;12.78;100.00
52535;BME280;38443;53.164;5.802;2023-05-23T10:25:03;102439.13;;;12.85;100.00
52535;BME280;38443;53.164;5.802;2023-05-23T10:27:38;102435.50;;;12.86;100.00
52535;BME280;38443;53.164;5.802;2023-05-23T10:30:07;102444.13;;;13.13;100.00
52535;BME280;38443;53.164;5.802;2023-05-23T10:32:34;102432.41;;;13.17;100.00
52535;BME280;38443;53.164;5.802;2023-05-23T10:35:20;102446.06;;;13.00;100.00
52535;BME280;38443;53.164;5.802;2023-05-23T10:43:15;102442.22;;;13.20;100.00
52535;BME280;38443;53.164;5.802;2023-05-23T10:45:44;102452.13;;;13.17;100.00
52535;BME280;38443;53.164;5.802;2023-05-23T10:51:02;102457.50;;;13.16;100.00
52535;BME280;38443;53.164;5.802;2023-05-23T10:53:29;102462.97;;;13.11;100.00
52535;BME280;38443;53.164;5.802;2023-05-23T10:55:55;102460.31;;;13.07;100.00
52535;BME280;38443;53.164;5.802;2023-05-23T10:58:21;102449.69;;;12.97;100.00
52535;BME280;38443;53.164;5.802;2023-05-23T11:00:55;102464.91;;;12.98;100.00
52535;BME280;38443;53.164;5.802;2023-05-23T11:09:18;102470.59;;;12.74;100.00
52535;BME280;38443;53.164;5.802;2023-05-23T11:17:15;102466.94;;;12.81;100.00
52535;BME280;38443;53.164;5.802;2023-05-23T11:20:02;102469.31;;;13.04;100.00
52535;BME280;38443;53.164;5.802;2023-05-23T11:22:30;102468.19;;;13.21;100.00
52535;BME280;38443;53.164;5.802;2023-05-23T11:24:56;102479.25;;;12.99;100.00
52535;BME280;38443;53.164;5.802;2023-05-23T11:27:31;102476.81;;;12.77;100.00
52535;BME280;38443;53.164;5.802;2023-05-23T11:30:03;102472.06;;;13.00;100.00
52535;BME280;38443;53.164;5.802;2023-05-23T11:32:30;102470.78;;;13.31;100.00
52535;BME280;38443;53.164;5.802;2023-05-23T11:35:03;102480.47;;;13.42;100.00
52535;BME280;38443;53.164;5.802;2023-05-23T11:37:29;102477.50;;;13.60;100.00
52535;BME280;38443;53.164;5.802;2023-05-23T11:39:55;102480.28;;;13.55;100.00
52535;BME280;38443;53.164;5.802;2023-05-23T11:42:21;102477.63;;;13.52;100.00
52535;BME280;38443;53.164;5.802;2023-05-23T11:44:50;102478.34;;;13.64;100.00
52535;BME280;38443;53.164;5.802;2023-05-23T11:47:17;102479.75;;;13.88;100.00
52535;BME280;38443;53.164;5.802;2023-05-23T11:49:44;102476.59;;;13.61;100.00
52535;BME280;38443;53.164;5.802;2023-05-23T11:52:11;102490.41;;;13.36;100.00
52535;BME280;38443;53.164;5.802;2023-05-23T11:54:36;102488.88;;;13.17;100.00
52535;BME280;38443;53.164;5.802;2023-05-23T11:57:01;102498.06;;;12.99;100.00
52535;BME280;38443;53.164;5.802;2023-05-23T11:59:27;102486.84;;;12.63;100.00
52535;BME280;38443;53.164;5.802;2023-05-23T12:01:54;102493.97;;;12.66;100.00
52535;BME280;38443;53.164;5.802;2023-05-23T12:04:19;102495.25;;;13.07;100.00
52535;BME280;38443;53.164;5.802;2023-05-23T12:06:46;102479.63;;;13.40;100.00
52535;BME280;38443;53.164;5.802;2023-05-23T12:09:13;102481.13;;;13.57;100.00
52535;BME280;38443;53.164;5.802;2023-05-23T12:11:39;102493.78;;;13.51;100.00
52535;BME280;38443;53.164;5.802;2023-05-23T12:14:06;102500.78;;;12.96;100.00
52535;BME280;38443;53.164;5.802;2023-05-23T12:16:32;102504.41;;;12.92;100.00
52535;BME280;38443;53.164;5.802;2023-05-23T12:18:59;102494.63;;;12.86;100.00
52535;BME280;38443;53.164;5.802;2023-05-23T12:21:26;102494.34;;;13.08;100.00
52535;BME280;38443;53.164;5.802;2023-05-23T12:24:11;102503.53;;;12.91;100.00
52535;BME280;38443;53.164;5.802;2023-05-23T12:26:48;102499.75;;;13.06;100.00
52535;BME280;38443;53.164;5.802;2023-05-23T12:29:13;102497.59;;;13.34;100.00
52535;BME280;38443;53.164;5.802;2023-05-23T12:31:39;102489.22;;;13.56;100.00
52535;BME280;38443;53.164;5.802;2023-05-23T12:34:04;102503.03;;;13.31;100.00
52535;BME280;38443;53.164;5.802;2023-05-23T12:36:29;102492.31;;;13.30;100.00
52535;BME280;38443;53.164;5.802;2023-05-23T12:39:01;102494.69;;;13.51;100.00
52535;BME280;38443;53.164;5.802;2023-05-23T12:41:27;102489.31;;;13.50;100.00
52535;BME280;38443;53.164;5.802;2023-05-23T12:43:54;102500.09;;;13.48;100.00
52535;BME280;38443;53.164;5.802;2023-05-23T12:46:20;102503.94;;;13.30;100.00
52535;BME280;38443;53.164;5.802;2023-05-23T12:48:46;102505.28;;;12.94;100.00
52535;BME280;38443;53.164;5.802;2023-05-23T12:51:12;102508.28;;;12.69;100.00
52535;BME280;38443;53.164;5.802;2023-05-23T12:53:37;102501.38;;;12.45;100.00
52535;BME280;38443;53.164;5.802;2023-05-23T12:56:03;102510.91;;;12.72;100.00
52535;BME280;38443;53.164;5.802;2023-05-23T12:58:29;102504.41;;;12.93;100.00
52535;BME280;38443;53.164;5.802;2023-05-23T13:00:55;102502.53;;;12.98;100.00
52535;BME280;38443;53.164;5.802;2023-05-23T13:03:20;102498.25;;;12.82;100.00
52535;BME280;38443;53.164;5.802;2023-05-23T13:05:45;102509.78;;;12.93;100.00